createdAt,value
2023-05-21T00:00:31.803Z,16.73
2023-05-21T00:02:58.291Z,16.71
2023-05-21T00:05:24.779Z,16.72
2023-05-21T00:07:51.179Z,16.77
2023-05-21T00:10:17.594Z,16.76
2023-05-21T00:12:43.974Z,16.76
2023-05-21T00:15:10.401Z,16.78
2023-05-21T00:17:36.951Z,16.77
2023-05-21T00:20:03.576Z,16.76
2023-05-21T00:22:30.047Z,16.76
2023-05-21T00:24:56.507Z,16.74
2023-05-21T00:27:22.957Z,16.70
2023-05-21T00:29:49.357Z,16.71
2023-05-21T00:32:15.752Z,16.79
2023-05-21T00:34:42.243Z,16.80
2023-05-21T00:37:08.690Z,16.76
2023-05-21T00:39:35.097Z,16.72
2023-05-21T00:42:01.498Z,16.71
2023-05-21T00:44:27.931Z,16.69
2023-05-21T00:46:54.388Z,16.64
2023-05-21T00:49:20.852Z,16.61
2023-05-21T00:51:47.300Z,16.51
2023-05-21T00:54:13.701Z,16.40
2023-05-21T00:56:40.197Z,16.43
2023-05-21T00:59:06.618Z,16.43
2023-05-21T01:01:33.109Z,16.49
2023-05-21T01:03:59.569Z,16.48
2023-05-21T01:06:25.952Z,16.49
2023-05-21T01:08:52.378Z,16.55
2023-05-21T01:11:18.790Z,16.51
2023-05-21T01:13:45.184Z,16.53
2023-05-21T01:16:11.560Z,16.47
2023-05-21T01:18:38.427Z,16.39
2023-05-21T01:21:04.970Z,16.37
2023-05-21T01:23:31.348Z,16.33
2023-05-21T01:25:57.761Z,16.35
2023-05-21T01:28:24.193Z,16.35
2023-05-21T01:30:50.595Z,16.39
2023-05-21T01:33:17.194Z,16.37
2023-05-21T01:35:43.797Z,16.36
2023-05-21T01:38:10.199Z,16.29
2023-05-21T01:40:36.640Z,16.21
2023-05-21T01:43:03.034Z,16.23
2023-05-21T01:45:29.520Z,16.26
2023-05-21T01:47:55.968Z,16.24
2023-05-21T01:50:22.417Z,16.26
2023-05-21T01:52:48.879Z,16.18
2023-05-21T01:55:15.326Z,16.03
2023-05-21T01:57:41.722Z,15.87
2023-05-21T02:00:08.118Z,15.73
2023-05-21T02:02:34.725Z,15.59
2023-05-21T02:05:01.252Z,15.48
2023-05-21T02:07:27.644Z,15.44
2023-05-21T02:09:54.054Z,15.40
2023-05-21T02:12:20.437Z,15.35
2023-05-21T02:14:46.868Z,15.30
2023-05-21T02:17:13.326Z,15.28
2023-05-21T02:19:39.714Z,15.22
2023-05-21T02:22:06.123Z,15.21
2023-05-21T02:24:32.563Z,15.16
2023-05-21T02:26:58.972Z,15.07
2023-05-21T02:29:25.419Z,15.01
2023-05-21T02:31:51.805Z,15.07
2023-05-21T02:34:18.251Z,15.07
2023-05-21T02:36:44.695Z,15.05
2023-05-21T02:39:11.120Z,15.05
2023-05-21T02:41:37.551Z,15.02
2023-05-21T02:44:03.948Z,14.93
2023-05-21T02:46:30.510Z,14.89
2023-05-21T02:48:57.013Z,14.84
2023-05-21T02:51:23.437Z,14.76
2023-05-21T02:53:49.911Z,14.73
2023-05-21T02:56:16.378Z,14.70
2023-05-21T02:58:42.866Z,14.74
2023-05-21T03:01:09.428Z,14.86
2023-05-21T03:03:35.913Z,14.89
2023-05-21T03:06:02.393Z,14.96
2023-05-21T03:08:28.802Z,15.05
2023-05-21T03:10:55.235Z,15.08
2023-05-21T03:13:21.702Z,14.95
2023-05-21T03:15:48.142Z,14.97
2023-05-21T03:18:14.659Z,14.97
2023-05-21T03:20:41.114Z,15.07
2023-05-21T03:23:07.511Z,15.21
2023-05-21T03:25:34.059Z,15.23
2023-05-21T03:28:00.708Z,15.20
2023-05-21T03:30:27.103Z,15.17
2023-05-21T03:32:53.548Z,15.11
2023-05-21T03:35:20.015Z,15.09
2023-05-21T03:37:46.420Z,15.07
2023-05-21T03:40:12.872Z,15.00
2023-05-21T03:42:39.334Z,14.94
2023-05-21T03:45:05.752Z,14.92
2023-05-21T03:47:32.223Z,14.89
2023-05-21T03:49:58.628Z,14.85
2023-05-21T03:52:25.060Z,14.89
2023-05-21T03:54:51.442Z,14.84
2023-05-21T03:57:17.861Z,14.75
2023-05-21T03:59:44.261Z,14.70
2023-05-21T04:02:10.647Z,14.66
2023-05-21T04:04:37.162Z,14.67
2023-05-21T04:07:03.651Z,14.68
2023-05-21T04:09:30.035Z,14.66
2023-05-21T04:11:56.415Z,14.66
2023-05-21T04:14:22.846Z,14.70
2023-05-21T04:16:49.352Z,14.73
2023-05-21T04:19:15.835Z,14.70
2023-05-21T04:21:42.278Z,14.62
2023-05-21T04:24:08.734Z,14.62
2023-05-21T04:26:35.162Z,14.62
2023-05-21T04:29:01.593Z,14.80
2023-05-21T04:31:28.180Z,14.85
2023-05-21T04:33:54.610Z,14.97
2023-05-21T04:36:21.046Z,15.05
2023-05-21T04:38:47.441Z,15.06
2023-05-21T04:41:13.884Z,15.04
2023-05-21T04:43:40.338Z,15.09
2023-05-21T04:46:06.729Z,15.13
2023-05-21T04:48:33.128Z,15.16
2023-05-21T04:50:59.548Z,15.14
2023-05-21T04:53:26.219Z,15.20
2023-05-21T04:55:52.708Z,15.28
2023-05-21T04:58:19.198Z,15.34
2023-05-21T05:00:45.648Z,15.34
2023-05-21T05:03:12.159Z,15.47
2023-05-21T05:05:38.872Z,15.64
2023-05-21T05:08:05.525Z,15.80
2023-05-21T05:10:31.957Z,15.90
2023-05-21T05:12:58.427Z,15.94
2023-05-21T05:15:24.843Z,16.01
2023-05-21T05:17:51.303Z,16.11
2023-05-21T05:20:17.711Z,16.22
2023-05-21T05:22:44.108Z,16.32
2023-05-21T05:25:10.660Z,16.31
2023-05-21T05:27:38.476Z,16.27
2023-05-21T05:30:05.187Z,16.28
2023-05-21T05:32:31.621Z,16.32
2023-05-21T05:34:58.532Z,16.30
2023-05-21T05:37:25.905Z,16.33
2023-05-21T05:39:52.333Z,16.35
2023-05-21T05:42:18.778Z,16.37
2023-05-21T05:44:45.160Z,16.36
2023-05-21T05:47:11.590Z,16.31
2023-05-21T05:49:38.007Z,16.20
2023-05-21T05:52:04.385Z,16.21
2023-05-21T05:54:30.779Z,16.29
2023-05-21T05:56:57.226Z,16.30
2023-05-21T05:59:23.682Z,16.34
2023-05-21T06:01:50.101Z,16.36
2023-05-21T06:04:16.535Z,16.38
2023-05-21T06:06:43.055Z,16.38
2023-05-21T06:09:09.488Z,16.39
2023-05-21T06:11:35.931Z,16.42
2023-05-21T06:14:02.381Z,16.47
2023-05-21T06:16:28.843Z,16.50
2023-05-21T06:18:55.298Z,16.56
2023-05-21T06:21:21.806Z,16.64
2023-05-21T06:23:48.265Z,16.66
2023-05-21T06:26:14.652Z,16.68
2023-05-21T06:28:41.091Z,16.73
2023-05-21T06:31:07.492Z,16.82
2023-05-21T06:33:33.975Z,16.86
2023-05-21T06:36:00.503Z,16.94
2023-05-21T06:38:26.887Z,17.02
2023-05-21T06:40:53.329Z,17.11
2023-05-21T06:43:19.730Z,17.15
2023-05-21T06:45:46.161Z,17.12
2023-05-21T06:48:12.559Z,17.04
2023-05-21T06:50:39.013Z,16.96
2023-05-21T06:53:05.481Z,17.07
2023-05-21T06:55:31.872Z,17.12
2023-05-21T06:57:58.329Z,17.20
2023-05-21T07:00:24.774Z,17.28
2023-05-21T07:02:51.220Z,17.37
2023-05-21T07:05:17.695Z,17.47
2023-05-21T07:07:44.108Z,17.52
2023-05-21T07:10:10.483Z,17.51
2023-05-21T07:12:36.914Z,17.56
2023-05-21T07:15:03.333Z,17.65
2023-05-21T07:17:29.781Z,17.65
2023-05-21T07:19:56.245Z,17.70
2023-05-21T07:22:22.658Z,17.79
2023-05-21T07:24:49.057Z,17.83
2023-05-21T07:27:25.308Z,17.90
2023-05-21T07:29:52.556Z,17.96
2023-05-21T07:32:18.960Z,17.96
2023-05-21T07:34:45.402Z,18.04
2023-05-21T07:37:11.800Z,18.17
2023-05-21T07:39:38.238Z,18.28
2023-05-21T07:42:04.677Z,18.37
2023-05-21T07:44:31.087Z,18.31
2023-05-21T07:46:57.526Z,18.41
2023-05-21T07:49:23.914Z,18.35
2023-05-21T07:51:50.357Z,18.28
2023-05-21T07:54:16.792Z,18.44
2023-05-21T07:56:43.251Z,18.54
2023-05-21T07:59:10.026Z,18.56
2023-05-21T08:01:37.634Z,18.64
2023-05-21T08:04:04.230Z,18.68
2023-05-21T08:06:30.875Z,18.87
2023-05-21T08:08:57.260Z,18.89
2023-05-21T08:11:23.690Z,18.88
2023-05-21T08:13:50.159Z,18.94
2023-05-21T08:16:16.638Z,19.00
2023-05-21T08:18:43.191Z,19.06
2023-05-21T08:21:09.656Z,19.01
2023-05-21T08:23:36.058Z,19.11
2023-05-21T08:26:02.509Z,19.24
2023-05-21T08:28:28.951Z,19.35
2023-05-21T08:30:55.404Z,19.23
2023-05-21T08:33:21.861Z,19.36
2023-05-21T08:35:48.261Z,19.32
2023-05-21T08:38:14.705Z,19.48
2023-05-21T08:40:41.096Z,19.61
2023-05-21T08:43:07.502Z,19.72
2023-05-21T08:45:34.069Z,19.83
2023-05-21T08:48:00.557Z,19.64
2023-05-21T08:50:27.023Z,19.44
2023-05-21T08:52:53.483Z,19.44
2023-05-21T08:55:19.937Z,19.50
2023-05-21T08:57:46.369Z,19.49
2023-05-21T09:00:12.915Z,19.65
2023-05-21T09:02:39.444Z,19.75
2023-05-21T09:05:05.892Z,19.90
2023-05-21T09:07:32.291Z,20.17
2023-05-21T09:09:58.721Z,20.23
2023-05-21T09:12:25.173Z,20.29
2023-05-21T09:14:51.630Z,20.25
2023-05-21T09:17:18.021Z,20.25
2023-05-21T09:19:44.454Z,20.10
2023-05-21T09:22:10.850Z,20.21
2023-05-21T09:24:37.285Z,20.25
2023-05-21T09:27:03.691Z,20.36
2023-05-21T09:29:30.097Z,20.47
2023-05-21T09:31:56.500Z,20.58
2023-05-21T09:34:22.965Z,20.62
2023-05-21T09:36:49.404Z,20.75
2023-05-21T09:39:15.805Z,20.80
2023-05-21T09:41:42.235Z,20.93
2023-05-21T09:44:08.681Z,21.10
2023-05-21T09:46:35.157Z,21.18
2023-05-21T09:49:01.615Z,21.12
2023-05-21T09:51:28.061Z,21.12
2023-05-21T09:53:54.502Z,21.22
2023-05-21T09:56:20.898Z,21.27
2023-05-21T09:58:47.296Z,21.14
2023-05-21T10:01:13.769Z,21.00
2023-05-21T10:03:49.920Z,21.01
2023-05-21T10:06:17.054Z,21.04
2023-05-21T10:08:43.440Z,20.98
2023-05-21T10:11:09.873Z,20.88
2023-05-21T10:13:36.310Z,20.71
2023-05-21T10:16:02.782Z,20.77
2023-05-21T10:18:29.293Z,20.82
2023-05-21T10:20:55.695Z,20.92
2023-05-21T10:23:22.143Z,20.97
2023-05-21T10:25:48.675Z,21.07
2023-05-21T10:28:15.078Z,21.10
2023-05-21T10:30:41.538Z,21.15
2023-05-21T10:33:08.030Z,21.17
2023-05-21T10:35:35.091Z,21.17
2023-05-21T10:38:01.939Z,21.07
2023-05-21T10:40:28.367Z,21.17
2023-05-21T10:42:54.816Z,21.20
2023-05-21T10:45:21.210Z,21.07
2023-05-21T10:47:47.666Z,21.08
2023-05-21T10:50:14.113Z,21.19
2023-05-21T10:52:40.557Z,21.20
2023-05-21T10:55:06.976Z,21.24
2023-05-21T10:57:33.424Z,21.34
2023-05-21T10:59:59.878Z,21.47
2023-05-21T11:02:26.333Z,21.54
2023-05-21T11:04:52.841Z,21.56
2023-05-21T11:07:19.227Z,21.59
2023-05-21T11:09:45.659Z,21.76
2023-05-21T11:12:12.275Z,21.81
2023-05-21T11:14:38.740Z,21.92
2023-05-21T11:17:05.214Z,21.83
2023-05-21T11:19:33.980Z,21.84
2023-05-21T11:22:00.674Z,21.96
2023-05-21T11:24:27.050Z,22.06
2023-05-21T11:26:53.491Z,22.11
2023-05-21T11:29:19.884Z,22.23
2023-05-21T11:31:46.401Z,22.37
2023-05-21T11:34:12.907Z,22.48
2023-05-21T11:36:39.291Z,22.53
2023-05-21T11:39:05.713Z,22.59
2023-05-21T11:41:32.165Z,22.69
2023-05-21T11:43:58.593Z,22.75
2023-05-21T11:46:25.103Z,22.87
2023-05-21T11:48:51.499Z,22.82
2023-05-21T11:51:17.859Z,22.93
2023-05-21T11:53:44.567Z,22.97
2023-05-21T11:56:11.061Z,23.09
2023-05-21T11:58:37.486Z,23.20
2023-05-21T12:01:03.894Z,23.25
2023-05-21T12:03:30.455Z,23.38
2023-05-21T12:05:57.248Z,23.45
2023-05-21T12:08:23.678Z,23.56
2023-05-21T12:10:50.057Z,23.60
2023-05-21T12:13:16.426Z,23.58
2023-05-21T12:15:42.851Z,23.68
2023-05-21T12:18:09.255Z,23.74
2023-05-21T12:20:35.823Z,23.81
2023-05-21T12:23:02.427Z,23.88
2023-05-21T12:25:28.838Z,24.00
2023-05-21T12:27:55.279Z,24.05
2023-05-21T12:30:21.653Z,24.16
2023-05-21T12:32:48.056Z,24.22
2023-05-21T12:35:14.560Z,24.26
2023-05-21T12:37:40.955Z,24.19
2023-05-21T12:40:07.337Z,24.14
2023-05-21T12:42:33.774Z,24.15
2023-05-21T12:45:00.170Z,24.22
2023-05-21T12:47:26.716Z,24.25
2023-05-21T12:49:54.837Z,24.25
2023-05-21T12:52:21.710Z,24.24
2023-05-21T12:54:48.130Z,24.15
2023-05-21T12:57:14.560Z,24.07
2023-05-21T12:59:40.941Z,23.92
2023-05-21T13:02:07.367Z,23.75
2023-05-21T13:04:33.970Z,23.63
2023-05-21T13:07:01.075Z,23.51
2023-05-21T13:09:28.310Z,23.42
2023-05-21T13:11:54.743Z,23.48
2023-05-21T13:14:21.128Z,23.51
2023-05-21T13:16:47.595Z,23.47
2023-05-21T13:19:14.046Z,23.50
2023-05-21T13:21:40.502Z,23.45
2023-05-21T13:24:06.873Z,23.41
2023-05-21T13:26:33.291Z,23.47
2023-05-21T13:28:59.728Z,23.61
2023-05-21T13:31:26.169Z,23.63
2023-05-21T13:33:52.602Z,23.69
2023-05-21T13:36:19.072Z,23.86
2023-05-21T13:38:45.456Z,24.07
2023-05-21T13:41:11.884Z,24.33
2023-05-21T13:43:38.313Z,24.85
2023-05-21T13:46:04.695Z,25.24
2023-05-21T13:48:31.117Z,25.53
2023-05-21T13:50:57.695Z,25.69
2023-05-21T13:53:24.132Z,25.99
2023-05-21T13:55:50.585Z,26.31
2023-05-21T13:58:16.990Z,26.68
2023-05-21T14:00:43.538Z,27.03
2023-05-21T14:03:10.144Z,27.30
2023-05-21T14:05:36.610Z,27.39
2023-05-21T14:08:03.036Z,27.53
2023-05-21T14:10:29.439Z,27.78
2023-05-21T14:13:01.640Z,27.78
2023-05-21T14:15:38.401Z,27.81
2023-05-21T14:18:05.086Z,27.85
2023-05-21T14:20:31.559Z,27.94
2023-05-21T14:22:57.946Z,28.18
2023-05-21T14:25:24.373Z,28.68
2023-05-21T14:27:50.814Z,29.18
2023-05-21T14:30:17.244Z,29.75
2023-05-21T14:32:43.702Z,30.22
2023-05-21T14:35:10.137Z,30.61
2023-05-21T14:37:36.520Z,30.64
2023-05-21T14:40:02.911Z,30.71
2023-05-21T14:42:29.333Z,30.32
2023-05-21T14:44:55.774Z,29.94
2023-05-21T14:47:22.320Z,29.71
2023-05-21T14:49:50.880Z,29.59
2023-05-21T14:52:17.969Z,29.81
2023-05-21T14:54:44.687Z,29.89
2023-05-21T14:57:11.117Z,29.96
2023-05-21T14:59:37.499Z,30.10
2023-05-21T15:02:03.910Z,29.92
2023-05-21T15:04:30.308Z,29.93
2023-05-21T15:06:56.675Z,30.30
2023-05-21T15:09:23.086Z,30.54
2023-05-21T15:11:49.525Z,30.83
2023-05-21T15:14:16.009Z,30.87
2023-05-21T15:16:42.498Z,30.80
2023-05-21T15:19:09.033Z,31.04
2023-05-21T15:21:35.471Z,30.99
2023-05-21T15:24:01.864Z,30.66
2023-05-21T15:26:28.337Z,30.27
2023-05-21T15:28:54.778Z,29.71
2023-05-21T15:31:21.242Z,29.08
2023-05-21T15:33:47.674Z,28.82
2023-05-21T15:36:14.116Z,28.94
2023-05-21T15:38:40.517Z,28.64
2023-05-21T15:41:06.942Z,28.18
2023-05-21T15:43:33.381Z,27.75
2023-05-21T15:45:59.849Z,27.38
2023-05-21T15:48:26.253Z,27.15
2023-05-21T15:50:52.689Z,27.10
2023-05-21T15:53:19.096Z,27.02
2023-05-21T15:55:45.704Z,26.82
2023-05-21T15:58:12.146Z,26.33
2023-05-21T16:00:38.586Z,26.13
2023-05-21T16:03:05.112Z,26.11
2023-05-21T16:05:31.588Z,25.76
2023-05-21T16:07:57.960Z,25.55
2023-05-21T16:10:24.380Z,25.73
2023-05-21T16:12:50.834Z,25.79
2023-05-21T16:15:17.271Z,25.46
2023-05-21T16:17:43.716Z,25.33
2023-05-21T16:20:10.169Z,25.45
2023-05-21T16:22:36.586Z,25.26
2023-05-21T16:25:03.029Z,25.26
2023-05-21T16:27:29.521Z,25.11
2023-05-21T16:29:56.101Z,24.99
2023-05-21T16:32:22.845Z,24.88
2023-05-21T16:34:49.342Z,24.90
2023-05-21T16:37:15.774Z,24.97
2023-05-21T16:39:42.239Z,24.90
2023-05-21T16:42:08.677Z,24.92
2023-05-21T16:44:35.130Z,24.77
2023-05-21T16:47:01.574Z,24.70
2023-05-21T16:49:28.054Z,24.51
2023-05-21T16:51:54.469Z,24.40
2023-05-21T16:54:20.944Z,24.24
2023-05-21T16:56:47.365Z,24.11
2023-05-21T16:59:13.808Z,24.14
2023-05-21T17:01:40.276Z,24.23
2023-05-21T17:04:06.829Z,24.47
2023-05-21T17:06:33.288Z,24.55
2023-05-21T17:08:59.717Z,24.56
2023-05-21T17:11:26.094Z,24.54
2023-05-21T17:13:52.509Z,24.53
2023-05-21T17:16:18.957Z,24.42
2023-05-21T17:18:45.470Z,24.33
2023-05-21T17:21:11.864Z,24.33
2023-05-21T17:23:38.257Z,24.02
2023-05-21T17:26:04.677Z,23.65
2023-05-21T17:28:31.054Z,23.47
2023-05-21T17:30:57.578Z,23.45
2023-05-21T17:33:23.991Z,23.31
2023-05-21T17:35:50.419Z,23.13
2023-05-21T17:38:16.810Z,22.99
2023-05-21T17:40:43.210Z,22.87
2023-05-21T17:43:09.737Z,22.88
2023-05-21T17:45:36.380Z,22.81
2023-05-21T17:48:02.902Z,22.86
2023-05-21T17:50:29.388Z,22.85
2023-05-21T17:52:55.860Z,22.88
2023-05-21T17:55:22.243Z,22.91
2023-05-21T17:57:48.724Z,22.85
2023-05-21T18:00:15.137Z,22.78
2023-05-21T18:02:41.585Z,22.83
2023-05-21T18:05:07.971Z,22.74
2023-05-21T18:07:34.376Z,22.63
2023-05-21T18:10:00.800Z,22.59
2023-05-21T18:12:27.224Z,22.51
2023-05-21T18:14:53.649Z,22.47
2023-05-21T18:17:20.155Z,22.47
2023-05-21T18:19:46.531Z,22.38
2023-05-21T18:22:12.904Z,22.38
2023-05-21T18:24:39.321Z,22.29
2023-05-21T18:27:05.764Z,22.24
2023-05-21T18:29:32.210Z,22.15
2023-05-21T18:31:58.684Z,22.01
2023-05-21T18:34:25.137Z,21.98
2023-05-21T18:36:51.526Z,21.84
2023-05-21T18:39:17.946Z,21.79
2023-05-21T18:41:44.336Z,21.58
2023-05-21T18:44:10.789Z,21.48
2023-05-21T18:46:37.316Z,21.44
2023-05-21T18:49:03.753Z,21.35
2023-05-21T18:51:30.154Z,21.37
2023-05-21T18:53:56.586Z,21.35
2023-05-21T18:56:23.022Z,21.35
2023-05-21T18:58:49.465Z,21.24
2023-05-21T19:01:15.969Z,21.13
2023-05-21T19:03:42.514Z,21.08
2023-05-21T19:06:08.945Z,21.03
2023-05-21T19:08:35.374Z,20.92
2023-05-21T19:11:01.779Z,20.95
2023-05-21T19:13:28.157Z,21.18
2023-05-21T19:15:54.611Z,21.18
2023-05-21T19:18:21.098Z,21.02
2023-05-21T19:20:47.599Z,20.97
2023-05-21T19:23:14.013Z,20.95
2023-05-21T19:25:40.397Z,20.94
2023-05-21T19:28:06.861Z,20.83
2023-05-21T19:30:33.291Z,20.75
2023-05-21T19:32:59.739Z,20.76
2023-05-21T19:35:26.313Z,20.74
2023-05-21T19:37:52.698Z,20.63
2023-05-21T19:40:19.067Z,20.56
2023-05-21T19:42:45.488Z,20.45
2023-05-21T19:45:11.904Z,20.32
2023-05-21T19:47:38.438Z,20.42
2023-05-21T19:50:04.831Z,20.57
2023-05-21T19:52:31.200Z,20.72
2023-05-21T19:54:57.630Z,20.77
2023-05-21T19:57:24.096Z,20.73
2023-05-21T19:59:50.480Z,20.73
2023-05-21T20:02:16.866Z,20.68
2023-05-21T20:04:43.326Z,20.53
2023-05-21T20:07:09.798Z,20.50
2023-05-21T20:09:36.361Z,20.50
2023-05-21T20:12:02.729Z,20.43
2023-05-21T20:14:29.164Z,20.36
2023-05-21T20:16:55.560Z,20.40
2023-05-21T20:19:22.271Z,20.50
2023-05-21T20:21:48.683Z,20.48
2023-05-21T20:24:15.108Z,20.51
2023-05-21T20:26:41.540Z,20.58
2023-05-21T20:29:08.018Z,20.61
2023-05-21T20:31:34.615Z,20.58
2023-05-21T20:34:01.189Z,20.55
2023-05-21T20:36:27.617Z,20.45
2023-05-21T20:38:54.043Z,20.52
2023-05-21T20:41:20.448Z,20.55
2023-05-21T20:43:46.819Z,20.73
2023-05-21T20:46:13.229Z,20.75
2023-05-21T20:48:39.685Z,20.74
2023-05-21T20:51:06.156Z,20.87
2023-05-21T20:53:32.545Z,21.07
2023-05-21T20:55:58.946Z,20.93
2023-05-21T20:58:25.328Z,20.95
2023-05-21T21:00:51.775Z,20.99
2023-05-21T21:03:18.409Z,21.00
2023-05-21T21:05:44.889Z,20.92
2023-05-21T21:08:11.273Z,20.78
2023-05-21T21:10:37.781Z,20.83
2023-05-21T21:13:04.394Z,20.87
2023-05-21T21:15:30.829Z,20.77
2023-05-21T21:17:57.247Z,20.90
2023-05-21T21:20:23.661Z,20.91
2023-05-21T21:22:50.088Z,20.96
2023-05-21T21:25:16.502Z,20.83
2023-05-21T21:27:42.933Z,20.67
2023-05-21T21:30:09.370Z,20.75
2023-05-21T21:32:35.850Z,20.71
2023-05-21T21:35:02.308Z,20.73
2023-05-21T21:37:28.759Z,20.84
2023-05-21T21:39:55.202Z,20.82
2023-05-21T21:42:21.608Z,20.73
2023-05-21T21:44:48.079Z,20.70
2023-05-21T21:47:14.472Z,20.58
2023-05-21T21:49:40.853Z,20.66
2023-05-21T21:52:07.264Z,20.70
2023-05-21T21:54:33.644Z,20.66
2023-05-21T21:57:00.072Z,20.61
2023-05-21T21:59:26.565Z,20.57
2023-05-21T22:01:53.106Z,20.65
2023-05-21T22:04:19.601Z,20.66
2023-05-21T22:06:46.030Z,20.63
2023-05-21T22:09:12.547Z,20.58
2023-05-21T22:11:39.128Z,20.42
2023-05-21T22:14:05.516Z,20.58
2023-05-21T22:16:31.928Z,20.45
2023-05-21T22:18:58.381Z,20.39
2023-05-21T22:21:24.772Z,20.36
2023-05-21T22:23:51.184Z,20.37
2023-05-21T22:26:17.624Z,20.38
2023-05-21T22:28:44.073Z,20.28
2023-05-21T22:31:10.520Z,20.22
2023-05-21T22:33:36.905Z,20.16
2023-05-21T22:36:03.302Z,20.10
2023-05-21T22:38:29.745Z,20.05
2023-05-21T22:40:56.366Z,20.04
2023-05-21T22:43:22.797Z,20.05
2023-05-21T22:45:49.229Z,19.98
2023-05-21T22:48:15.655Z,19.93
2023-05-21T22:50:42.140Z,19.94
2023-05-21T22:53:08.606Z,19.95
2023-05-21T22:55:35.012Z,19.94
2023-05-21T22:58:01.375Z,19.93
2023-05-21T23:00:27.795Z,19.95
2023-05-21T23:02:54.713Z,19.94
2023-05-21T23:05:21.403Z,19.96
2023-05-21T23:07:47.872Z,20.02
2023-05-21T23:10:14.258Z,20.10
2023-05-21T23:12:40.681Z,20.14
2023-05-21T23:15:07.124Z,20.11
2023-05-21T23:17:33.612Z,20.13
2023-05-21T23:20:00.153Z,20.15
2023-05-21T23:22:26.616Z,20.10
2023-05-21T23:24:53.040Z,20.02
2023-05-21T23:27:19.506Z,20.03
2023-05-21T23:29:45.927Z,20.00
2023-05-21T23:32:12.342Z,19.98
2023-05-21T23:34:38.769Z,19.94
2023-05-21T23:37:05.201Z,19.86
2023-05-21T23:39:31.587Z,19.86
2023-05-21T23:41:57.957Z,19.87
2023-05-21T23:44:24.389Z,19.83
2023-05-21T23:46:50.767Z,19.76
2023-05-21T23:49:17.133Z,19.75
2023-05-21T23:51:43.544Z,19.75
2023-05-21T23:54:09.943Z,19.68
2023-05-21T23:56:36.360Z,19.69
2023-05-21T23:59:02.768Z,19.61
